Terminal Aerodrome Forecast
Issued by NWS

Home | Current Version | Previous Version | Text Only | Print | Product List | Glossary On
Versions: 1 2 3 4 5 6 7 8 9 10 11 12 13 14
000
FTUS45 KFGZ 290520
TAFSEZ
TAF
KSEZ 290520Z 2906/3006 VRB06KT P6SM SCT200
     FM291800 VRB06KT P6SM BKN110 PROB30 2921/3001 VRB10G20KT -TSRA
      BKN100CB
     FM300400 04006KT P6SM SCT110 BKN200=

USA.gov is the U.S. government's official web portal to all federal, state and local government web resources and services.